createdAt,value
2018-05-01T00:00:33.370Z,11.03
2018-05-01T00:01:33.292Z,10.99
2018-05-01T00:02:33.217Z,10.98
2018-05-01T00:03:33.139Z,11.00
2018-05-01T00:04:33.062Z,10.99
2018-05-01T00:05:32.987Z,10.92
2018-05-01T00:06:32.910Z,11.00
2018-05-01T00:07:32.839Z,10.99
2018-05-01T00:08:32.759Z,11.03
2018-05-01T00:09:32.682Z,11.00
2018-05-01T00:10:32.605Z,11.03
2018-05-01T00:11:32.528Z,11.06
2018-05-01T00:12:32.452Z,10.99
2018-05-01T00:13:32.376Z,10.99
2018-05-01T00:14:32.299Z,10.92
2018-05-01T00:15:32.222Z,10.93
2018-05-01T00:16:32.146Z,10.95
2018-05-01T00:17:32.075Z,11.03
2018-05-01T00:18:31.993Z,10.95
2018-05-01T00:19:31.916Z,11.03
2018-05-01T00:20:31.841Z,10.85
2018-05-01T00:21:31.762Z,10.80
2018-05-01T00:22:31.687Z,10.93
2018-05-01T00:23:31.610Z,10.99
2018-05-01T00:24:31.536Z,10.81
2018-05-01T00:25:31.458Z,10.96
2018-05-01T00:26:31.382Z,10.80
2018-05-01T00:27:31.305Z,10.92
2018-05-01T00:28:31.237Z,10.87
2018-05-01T00:29:31.152Z,10.75
2018-05-01T00:30:31.081Z,10.81
2018-05-01T00:31:31.003Z,10.73
2018-05-01T00:32:30.923Z,10.69
2018-05-01T00:33:30.848Z,10.78
2018-05-01T00:34:30.771Z,10.78
2018-05-01T00:35:30.694Z,10.71
2018-05-01T00:36:30.618Z,10.58
2018-05-01T00:37:30.544Z,10.46
2018-05-01T00:38:30.614Z,10.62
2018-05-01T00:39:30.388Z,10.56
2018-05-01T00:40:30.316Z,10.51
2018-05-01T00:41:30.235Z,10.47
2018-05-01T00:42:30.158Z,10.44
2018-05-01T00:43:30.082Z,10.40
2018-05-01T00:44:30.005Z,10.33
2018-05-01T00:45:29.927Z,10.43
2018-05-01T00:46:29.852Z,10.28
2018-05-01T00:47:29.776Z,10.34
2018-05-01T00:48:29.700Z,10.36
2018-05-01T00:49:29.620Z,10.28
2018-05-01T00:50:29.545Z,10.26
2018-05-01T00:51:29.472Z,10.23
2018-05-01T00:52:29.390Z,10.21
2018-05-01T00:53:29.314Z,10.11
2018-05-01T00:54:29.237Z,10.19
2018-05-01T00:55:29.160Z,10.00
2018-05-01T00:56:29.084Z,10.11
2018-05-01T00:57:29.007Z,10.06
2018-05-01T00:58:28.936Z,10.01
2018-05-01T00:59:28.856Z,10.00
2018-05-01T01:00:28.776Z,9.98
2018-05-01T01:01:28.698Z,9.97
2018-05-01T01:02:28.622Z,9.90
2018-05-01T01:03:28.546Z,9.83
2018-05-01T01:04:28.469Z,9.92
2018-05-01T01:05:28.391Z,9.89
2018-05-01T01:06:28.312Z,9.82
2018-05-01T01:07:28.236Z,9.89
2018-05-01T01:08:28.160Z,9.78
2018-05-01T01:09:28.082Z,9.82
2018-05-01T01:10:28.005Z,9.71
2018-05-01T01:11:27.928Z,9.78
2018-05-01T01:12:27.854Z,9.71
2018-05-01T01:13:27.773Z,9.70
2018-05-01T01:14:27.695Z,9.72
2018-05-01T01:15:27.618Z,9.68
2018-05-01T01:16:27.542Z,9.74
2018-05-01T01:17:27.465Z,9.55
2018-05-01T01:18:27.385Z,9.58
2018-05-01T01:19:27.312Z,9.60
2018-05-01T01:20:27.232Z,9.58
2018-05-01T01:21:27.158Z,9.53
2018-05-01T01:22:27.077Z,9.47
2018-05-01T01:23:26.999Z,9.43
2018-05-01T01:24:26.921Z,9.38
2018-05-01T01:25:26.844Z,9.27
2018-05-01T01:26:26.765Z,9.19
2018-05-01T01:27:26.689Z,9.05
2018-05-01T01:28:26.611Z,8.93
2018-05-01T01:29:26.534Z,8.90
2018-05-01T01:30:26.456Z,8.94
2018-05-01T01:31:26.378Z,8.84
2018-05-01T01:32:35.276Z,8.94
2018-05-01T01:33:26.221Z,8.84
2018-05-01T01:34:26.144Z,8.77
2018-05-01T01:35:26.066Z,8.79
2018-05-01T01:36:25.989Z,8.80
2018-05-01T01:37:25.909Z,8.72
2018-05-01T01:38:25.833Z,8.61
2018-05-01T01:39:25.757Z,8.58
2018-05-01T01:40:25.677Z,8.54
2018-05-01T01:41:25.599Z,8.51
2018-05-01T01:42:25.521Z,8.55
2018-05-01T01:43:25.443Z,8.44
2018-05-01T01:44:25.365Z,8.52
2018-05-01T01:45:25.288Z,8.52
2018-05-01T01:46:25.208Z,8.43
2018-05-01T01:47:25.134Z,8.39
2018-05-01T01:48:25.056Z,8.32
2018-05-01T01:49:24.974Z,8.34
2018-05-01T01:50:24.896Z,8.22
2018-05-01T01:51:24.822Z,8.21
2018-05-01T01:52:24.740Z,8.32
2018-05-01T01:53:24.662Z,8.27
2018-05-01T01:54:24.584Z,8.22
2018-05-01T01:55:24.506Z,8.27
2018-05-01T01:56:24.428Z,8.33
2018-05-01T01:57:24.350Z,8.30
2018-05-01T01:58:24.271Z,8.27
2018-05-01T01:59:24.192Z,8.30
2018-05-01T02:00:24.115Z,8.22
2018-05-01T02:01:24.038Z,8.32
2018-05-01T02:02:23.958Z,8.21
2018-05-01T02:03:23.881Z,8.27
2018-05-01T02:04:23.800Z,8.21
2018-05-01T02:05:23.721Z,8.21
2018-05-01T02:06:23.644Z,8.19
2018-05-01T02:07:23.566Z,8.21
2018-05-01T02:08:23.490Z,8.19
2018-05-01T02:09:23.410Z,8.19
2018-05-01T02:10:23.330Z,8.19
2018-05-01T02:11:23.253Z,8.14
2018-05-01T02:12:23.174Z,8.12
2018-05-01T02:13:23.095Z,8.12
2018-05-01T02:14:23.017Z,8.17
2018-05-01T02:15:22.939Z,8.03
2018-05-01T02:16:22.860Z,8.01
2018-05-01T02:17:22.781Z,8.04
2018-05-01T02:18:22.704Z,8.07
2018-05-01T02:19:22.624Z,8.04
2018-05-01T02:20:22.548Z,8.04
2018-05-01T02:21:22.467Z,7.96
2018-05-01T02:22:22.392Z,7.97
2018-05-01T02:23:22.310Z,7.93
2018-05-01T02:24:22.232Z,7.94
2018-05-01T02:25:22.152Z,7.99
2018-05-01T02:26:22.074Z,7.91
2018-05-01T02:27:21.996Z,7.88
2018-05-01T02:28:21.918Z,7.88
2018-05-01T02:29:21.838Z,7.85
2018-05-01T02:30:21.760Z,7.99
2018-05-01T02:31:21.683Z,7.85
2018-05-01T02:32:21.604Z,7.72
2018-05-01T02:33:21.528Z,7.79
2018-05-01T02:34:21.446Z,7.82
2018-05-01T02:35:21.367Z,7.76
2018-05-01T02:36:21.293Z,7.76
2018-05-01T02:37:21.210Z,7.70
2018-05-01T02:38:21.131Z,7.57
2018-05-01T02:39:21.052Z,7.73
2018-05-01T02:40:20.974Z,7.63
2018-05-01T02:41:20.935Z,7.67
2018-05-01T02:42:20.817Z,7.57
2018-05-01T02:43:20.739Z,7.67
2018-05-01T02:44:20.660Z,7.59
2018-05-01T02:45:20.580Z,7.57
2018-05-01T02:46:20.501Z,7.49
2018-05-01T02:47:20.422Z,7.45
2018-05-01T02:48:20.344Z,7.37
2018-05-01T02:49:20.265Z,7.35
2018-05-01T02:50:20.194Z,7.31
2018-05-01T02:51:20.112Z,7.44
2018-05-01T02:52:20.029Z,7.37
2018-05-01T02:53:19.956Z,7.41
2018-05-01T02:54:19.871Z,7.27
2018-05-01T02:55:19.792Z,7.13
2018-05-01T02:56:19.713Z,7.19
2018-05-01T02:57:19.634Z,7.13
2018-05-01T02:58:19.558Z,7.17
2018-05-01T02:59:19.476Z,7.19
2018-05-01T03:00:19.397Z,7.17
2018-05-01T03:01:19.318Z,7.12
2018-05-01T03:02:19.247Z,7.20
2018-05-01T03:03:19.159Z,7.12
2018-05-01T03:04:19.087Z,7.21
2018-05-01T03:05:19.001Z,7.16
2018-05-01T03:06:18.922Z,7.16
2018-05-01T03:07:18.844Z,7.09
2018-05-01T03:08:18.765Z,7.05
2018-05-01T03:09:18.685Z,7.12
2018-05-01T03:10:18.606Z,7.09
2018-05-01T03:11:18.527Z,7.06
2018-05-01T03:12:18.447Z,7.09
2018-05-01T03:13:18.370Z,7.03
2018-05-01T03:14:18.288Z,7.08
2018-05-01T03:15:18.210Z,6.98
2018-05-01T03:16:18.131Z,6.98
2018-05-01T03:17:18.051Z,6.93
2018-05-01T03:18:17.975Z,6.91
2018-05-01T03:19:17.893Z,6.96
2018-05-01T03:20:17.814Z,6.93
2018-05-01T03:21:17.735Z,7.02
2018-05-01T03:22:17.653Z,6.91
2018-05-01T03:23:17.576Z,6.90
2018-05-01T03:24:17.494Z,6.96
2018-05-01T03:25:17.420Z,7.02
2018-05-01T03:26:17.336Z,6.93
2018-05-01T03:27:17.256Z,6.94
2018-05-01T03:28:17.185Z,6.98
2018-05-01T03:29:17.102Z,6.98
2018-05-01T03:30:17.018Z,7.02
2018-05-01T03:31:16.939Z,6.94
2018-05-01T03:32:16.859Z,6.96
2018-05-01T03:33:16.781Z,7.05
2018-05-01T03:34:16.699Z,6.96
2018-05-01T03:35:16.620Z,6.96
2018-05-01T03:36:16.543Z,6.99
2018-05-01T03:37:16.459Z,7.02
2018-05-01T03:38:16.382Z,7.02
2018-05-01T03:39:16.361Z,7.02
2018-05-01T03:40:16.222Z,7.09
2018-05-01T03:41:16.141Z,7.09
2018-05-01T03:42:16.063Z,7.12
2018-05-01T03:43:15.984Z,7.11
2018-05-01T03:44:15.904Z,7.16
2018-05-01T03:45:15.823Z,7.09
2018-05-01T03:46:15.743Z,7.11
2018-05-01T03:47:15.667Z,7.17
2018-05-01T03:48:15.585Z,7.13
2018-05-01T03:49:15.505Z,7.17
2018-05-01T03:50:15.425Z,7.19
2018-05-01T03:51:15.345Z,7.19
2018-05-01T03:52:15.267Z,7.17
2018-05-01T03:53:15.186Z,7.16
2018-05-01T03:54:15.107Z,7.08
2018-05-01T03:55:15.030Z,7.13
2018-05-01T03:56:14.973Z,7.17
2018-05-01T03:57:14.868Z,7.17
2018-05-01T03:58:14.791Z,7.16
2018-05-01T03:59:14.708Z,7.29
2018-05-01T04:00:14.630Z,7.19
2018-05-01T04:01:14.550Z,7.20
2018-05-01T04:02:14.474Z,7.16
2018-05-01T04:03:14.391Z,7.16
2018-05-01T04:04:14.312Z,7.13
2018-05-01T04:05:14.232Z,7.13
2018-05-01T04:06:14.155Z,7.11
2018-05-01T04:07:14.075Z,7.16
2018-05-01T04:08:13.995Z,7.21
2018-05-01T04:09:13.914Z,7.16
2018-05-01T04:10:13.835Z,7.19
2018-05-01T04:11:13.756Z,7.24
2018-05-01T04:12:13.677Z,7.16
2018-05-01T04:13:13.598Z,7.26
2018-05-01T04:14:13.517Z,7.17
2018-05-01T04:15:13.438Z,7.24
2018-05-01T04:16:13.361Z,7.42
2018-05-01T04:17:13.280Z,7.39
2018-05-01T04:18:13.207Z,7.47
2018-05-01T04:19:13.121Z,7.37
2018-05-01T04:20:13.042Z,7.44
2018-05-01T04:21:12.962Z,7.34
2018-05-01T04:22:12.883Z,7.42
2018-05-01T04:23:12.803Z,7.44
2018-05-01T04:24:12.724Z,7.48
2018-05-01T04:25:12.644Z,7.53
2018-05-01T04:26:12.564Z,7.48
2018-05-01T04:27:12.487Z,7.45
2018-05-01T04:28:12.407Z,7.52
2018-05-01T04:29:12.327Z,7.52
2018-05-01T04:30:12.251Z,7.49
2018-05-01T04:31:12.170Z,7.56
2018-05-01T04:32:12.090Z,7.52
2018-05-01T04:33:12.012Z,7.60
2018-05-01T04:34:11.932Z,7.53
2018-05-01T04:35:11.852Z,7.55
2018-05-01T04:36:11.775Z,7.49
2018-05-01T04:37:11.694Z,7.49
2018-05-01T04:38:11.616Z,7.42
2018-05-01T04:39:11.537Z,7.47
2018-05-01T04:40:11.459Z,7.37
2018-05-01T04:41:11.378Z,7.37
2018-05-01T04:42:11.301Z,7.37
2018-05-01T04:43:11.223Z,7.30
2018-05-01T04:44:11.141Z,7.37
2018-05-01T04:45:11.061Z,7.26
2018-05-01T04:46:10.987Z,7.38
2018-05-01T04:47:10.904Z,7.38
2018-05-01T04:48:10.825Z,7.35
2018-05-01T04:49:10.745Z,7.39
2018-05-01T04:50:10.667Z,7.35
2018-05-01T04:51:10.588Z,7.37
2018-05-01T04:52:10.509Z,7.42
2018-05-01T04:53:10.429Z,7.34
2018-05-01T04:54:10.349Z,7.34
2018-05-01T04:55:10.273Z,7.38
2018-05-01T04:56:10.192Z,7.31
2018-05-01T04:57:10.112Z,7.39
2018-05-01T04:58:10.034Z,7.37
2018-05-01T04:59:09.955Z,7.29
2018-05-01T05:00:09.877Z,7.34
2018-05-01T05:01:09.796Z,7.27
2018-05-01T05:02:09.718Z,7.16
2018-05-01T05:03:09.639Z,7.19
2018-05-01T05:04:09.559Z,7.26
2018-05-01T05:05:09.480Z,7.29
2018-05-01T05:06:09.403Z,7.29
2018-05-01T05:07:09.322Z,7.38
2018-05-01T05:08:09.244Z,7.35
2018-05-01T05:09:09.164Z,7.34
2018-05-01T05:10:09.084Z,7.38
2018-05-01T05:11:09.007Z,7.39
2018-05-01T05:12:08.928Z,7.34
2018-05-01T05:13:08.850Z,7.39
2018-05-01T05:14:08.769Z,7.42
2018-05-01T05:15:08.689Z,7.47
2018-05-01T05:16:08.610Z,7.53
2018-05-01T05:17:08.532Z,7.56
2018-05-01T05:18:08.453Z,7.48
2018-05-01T05:19:08.378Z,7.55
2018-05-01T05:20:08.295Z,7.56
2018-05-01T05:21:08.215Z,7.63
2018-05-01T05:22:08.136Z,7.67
2018-05-01T05:23:08.059Z,7.73
2018-05-01T05:24:07.980Z,7.68
2018-05-01T05:25:07.900Z,7.70
2018-05-01T05:26:07.823Z,7.79
2018-05-01T05:27:07.743Z,7.73
2018-05-01T05:28:07.665Z,7.82
2018-05-01T05:29:07.594Z,7.78
2018-05-01T05:30:07.508Z,7.76
2018-05-01T05:31:07.428Z,7.78
2018-05-01T05:32:07.350Z,7.76
2018-05-01T05:33:07.271Z,7.83
2018-05-01T05:34:07.192Z,7.75
2018-05-01T05:35:07.114Z,7.82
2018-05-01T05:36:07.036Z,7.73
2018-05-01T05:37:06.958Z,7.73
2018-05-01T05:38:06.879Z,7.75
2018-05-01T05:39:06.799Z,7.70
2018-05-01T05:40:06.721Z,7.68
2018-05-01T05:41:06.942Z,7.72
2018-05-01T05:42:06.563Z,7.79
2018-05-01T05:43:06.486Z,7.73
2018-05-01T05:44:06.408Z,7.82
2018-05-01T05:45:06.329Z,7.88
2018-05-01T05:46:06.250Z,8.00
2018-05-01T05:47:06.171Z,8.04
2018-05-01T05:48:06.098Z,8.14
2018-05-01T05:49:06.016Z,8.21
2018-05-01T05:50:05.937Z,8.21
2018-05-01T05:51:05.857Z,8.12
2018-05-01T05:52:05.781Z,8.12
2018-05-01T05:53:05.702Z,8.12
2018-05-01T05:54:05.624Z,8.00
2018-05-01T05:55:05.545Z,8.01
2018-05-01T05:56:05.467Z,8.04
2018-05-01T05:57:05.388Z,7.93
2018-05-01T05:58:05.310Z,7.99
2018-05-01T05:59:05.233Z,7.99
2018-05-01T06:00:05.156Z,7.97
2018-05-01T06:01:05.131Z,7.93
2018-05-01T06:02:04.997Z,7.86
2018-05-01T06:03:04.920Z,7.93
2018-05-01T06:04:04.842Z,7.90
2018-05-01T06:05:04.764Z,7.93
2018-05-01T06:06:04.684Z,7.99
2018-05-01T06:07:04.606Z,8.04
2018-05-01T06:08:04.528Z,8.09
2018-05-01T06:09:04.450Z,8.09
2018-05-01T06:10:04.371Z,8.06
2018-05-01T06:11:04.295Z,8.18
2018-05-01T06:12:04.214Z,8.15
2018-05-01T06:13:04.136Z,8.19
2018-05-01T06:14:04.057Z,8.18
2018-05-01T06:15:03.980Z,8.19
2018-05-01T06:16:03.903Z,8.27
2018-05-01T06:17:03.823Z,8.52
2018-05-01T06:18:03.745Z,8.75
2018-05-01T06:19:03.671Z,8.75
2018-05-01T06:20:03.596Z,8.66
2018-05-01T06:21:03.511Z,8.55
2018-05-01T06:22:03.582Z,8.37
2018-05-01T06:23:03.355Z,8.48
2018-05-01T06:24:03.277Z,8.50
2018-05-01T06:25:03.199Z,8.51
2018-05-01T06:26:03.122Z,8.61
2018-05-01T06:27:03.043Z,8.55
2018-05-01T06:28:02.966Z,8.54
2018-05-01T06:29:02.888Z,8.57
2018-05-01T06:30:02.810Z,8.69
2018-05-01T06:31:02.812Z,8.70
2018-05-01T06:32:02.655Z,8.77
2018-05-01T06:33:02.581Z,8.84
2018-05-01T06:34:02.505Z,8.44
2018-05-01T06:35:02.422Z,8.40
2018-05-01T06:36:02.344Z,8.40
2018-05-01T06:37:02.266Z,8.48
2018-05-01T06:38:02.188Z,8.60
2018-05-01T06:39:02.116Z,8.62
2018-05-01T06:40:02.034Z,8.57
2018-05-01T06:41:01.954Z,8.54
2018-05-01T06:42:01.876Z,8.57
2018-05-01T06:43:01.799Z,8.62
2018-05-01T06:44:01.828Z,8.65
2018-05-01T06:45:01.644Z,8.57
2018-05-01T06:46:01.566Z,8.54
2018-05-01T06:47:01.488Z,8.58
2018-05-01T06:48:01.415Z,8.57
2018-05-01T06:49:01.387Z,8.57
2018-05-01T06:50:01.256Z,8.48
2018-05-01T06:51:01.178Z,8.36
2018-05-01T06:52:01.104Z,8.33
2018-05-01T06:53:01.023Z,8.29
2018-05-01T06:54:00.945Z,8.33
2018-05-01T06:55:00.867Z,8.36
2018-05-01T06:56:00.824Z,8.24
2018-05-01T06:57:00.710Z,8.29
2018-05-01T06:58:00.634Z,8.27
2018-05-01T06:59:00.556Z,8.32
2018-05-01T07:00:00.479Z,8.39
2018-05-01T07:01:00.400Z,8.39
2018-05-01T07:02:00.327Z,8.42
2018-05-01T07:03:00.245Z,8.50
2018-05-01T07:04:00.168Z,8.60
2018-05-01T07:05:00.090Z,8.61
2018-05-01T07:06:00.013Z,8.54
2018-05-01T07:06:59.934Z,8.47
2018-05-01T07:07:59.864Z,8.48
2018-05-01T07:08:59.779Z,8.34
2018-05-01T07:09:59.704Z,8.30
2018-05-01T07:10:59.623Z,8.34
2018-05-01T07:11:59.546Z,8.34
2018-05-01T07:12:59.472Z,8.39
2018-05-01T07:13:59.389Z,8.33
2018-05-01T07:14:59.312Z,8.43
2018-05-01T07:15:59.238Z,8.37
2018-05-01T07:16:59.161Z,8.43
2018-05-01T07:17:59.079Z,8.39
2018-05-01T07:18:59.001Z,8.42
2018-05-01T07:19:58.924Z,8.44
2018-05-01T07:20:58.845Z,8.39
2018-05-01T07:21:58.767Z,8.34
2018-05-01T07:22:58.695Z,8.25
2018-05-01T07:23:58.641Z,8.25
2018-05-01T07:24:58.534Z,8.30
2018-05-01T07:25:58.460Z,8.32
2018-05-01T07:26:58.379Z,8.25
2018-05-01T07:27:58.301Z,8.19
2018-05-01T07:28:58.223Z,8.22
2018-05-01T07:29:58.145Z,8.34
2018-05-01T07:30:58.068Z,8.25
2018-05-01T07:31:57.990Z,8.25
2018-05-01T07:32:57.912Z,8.30
2018-05-01T07:33:57.833Z,8.25
2018-05-01T07:34:57.756Z,8.30
2018-05-01T07:35:57.678Z,8.22
2018-05-01T07:36:57.599Z,8.18
2018-05-01T07:37:57.521Z,8.22
2018-05-01T07:38:57.444Z,8.30
2018-05-01T07:39:57.366Z,8.32
2018-05-01T07:40:57.287Z,8.24
2018-05-01T07:41:57.209Z,8.27
2018-05-01T07:42:57.132Z,8.27
2018-05-01T07:43:57.055Z,8.25
2018-05-01T07:44:56.975Z,8.27
2018-05-01T07:45:56.897Z,8.40
2018-05-01T07:46:56.820Z,8.33
2018-05-01T07:47:56.742Z,8.33
2018-05-01T07:48:56.663Z,8.32
2018-05-01T07:49:56.587Z,8.43
2018-05-01T07:50:56.508Z,8.42
2018-05-01T07:51:56.456Z,8.48
2018-05-01T07:52:56.352Z,8.44
2018-05-01T07:53:56.277Z,8.52
2018-05-01T07:54:56.197Z,8.57
2018-05-01T07:55:56.120Z,8.54
2018-05-01T07:56:56.042Z,8.50
2018-05-01T07:57:55.964Z,8.54
2018-05-01T07:58:55.885Z,8.51
2018-05-01T07:59:55.809Z,8.44
2018-05-01T08:00:55.729Z,8.48
2018-05-01T08:01:55.652Z,8.48
2018-05-01T08:02:55.577Z,8.54
2018-05-01T08:03:55.565Z,8.54
2018-05-01T08:04:55.419Z,8.54
2018-05-01T08:05:55.341Z,8.61
2018-05-01T08:06:55.313Z,8.44
2018-05-01T08:07:55.185Z,8.42
2018-05-01T08:08:55.107Z,8.55
2018-05-01T08:09:55.030Z,8.42
2018-05-01T08:10:54.951Z,8.36
2018-05-01T08:11:54.874Z,8.33
2018-05-01T08:12:54.795Z,8.39
2018-05-01T08:13:54.717Z,8.47
2018-05-01T08:14:54.641Z,8.57
2018-05-01T08:15:54.562Z,8.55
2018-05-01T08:16:54.484Z,8.58
2018-05-01T08:17:54.412Z,8.55
2018-05-01T08:18:54.328Z,8.58
2018-05-01T08:19:54.252Z,8.39
2018-05-01T08:20:54.174Z,8.40
2018-05-01T08:21:54.094Z,8.33
2018-05-01T08:22:54.023Z,8.42
2018-05-01T08:23:53.939Z,8.55
2018-05-01T08:24:53.861Z,8.55
2018-05-01T08:25:53.784Z,8.65
2018-05-01T08:26:53.706Z,8.69
2018-05-01T08:27:53.629Z,8.65
2018-05-01T08:28:53.550Z,8.68
2018-05-01T08:29:53.473Z,8.68
2018-05-01T08:30:53.395Z,8.68
2018-05-01T08:31:53.318Z,8.87
2018-05-01T08:32:53.239Z,8.88
2018-05-01T08:33:53.163Z,8.84
2018-05-01T08:34:53.084Z,8.90
2018-05-01T08:35:53.009Z,9.14
2018-05-01T08:36:52.929Z,9.32
2018-05-01T08:37:52.852Z,9.52
2018-05-01T08:38:52.775Z,9.56
2018-05-01T08:39:52.699Z,9.72
2018-05-01T08:40:52.620Z,9.75
2018-05-01T08:41:52.543Z,9.72
2018-05-01T08:42:52.467Z,9.85
2018-05-01T08:43:52.390Z,9.58
2018-05-01T08:44:52.311Z,9.47
2018-05-01T08:45:52.235Z,9.14
2018-05-01T08:46:52.159Z,9.17
2018-05-01T08:47:52.083Z,9.28
2018-05-01T08:48:52.005Z,9.17
2018-05-01T08:49:51.928Z,9.16
2018-05-01T08:50:51.851Z,9.25
2018-05-01T08:51:51.775Z,9.35
2018-05-01T08:52:51.697Z,9.55
2018-05-01T08:53:51.620Z,9.58
2018-05-01T08:54:51.543Z,9.35
2018-05-01T08:55:51.467Z,9.31
2018-05-01T08:56:51.389Z,9.65
2018-05-01T08:57:51.312Z,9.78
2018-05-01T08:58:51.236Z,9.98
2018-05-01T08:59:51.161Z,10.15
2018-05-01T09:00:51.082Z,9.89
2018-05-01T09:01:51.006Z,9.79
2018-05-01T09:02:50.929Z,9.80
2018-05-01T09:03:50.854Z,9.72
2018-05-01T09:04:50.775Z,9.79
2018-05-01T09:05:50.699Z,9.97
2018-05-01T09:06:50.624Z,9.72
2018-05-01T09:07:50.548Z,9.56
2018-05-01T09:08:50.471Z,9.61
2018-05-01T09:09:50.396Z,9.45
2018-05-01T09:10:50.318Z,9.75
2018-05-01T09:11:50.242Z,9.96
2018-05-01T09:12:50.164Z,10.16
2018-05-01T09:13:50.093Z,10.16
2018-05-01T09:14:50.014Z,10.36
2018-05-01T09:15:49.935Z,10.53
2018-05-01T09:16:49.857Z,10.65
2018-05-01T09:17:49.994Z,11.03
2018-05-01T09:18:49.706Z,11.10
2018-05-01T09:19:49.630Z,10.62
2018-05-01T09:20:49.553Z,10.71
2018-05-01T09:21:49.476Z,10.43
2018-05-01T09:22:49.401Z,10.66
2018-05-01T09:23:49.326Z,10.85
2018-05-01T09:24:49.247Z,10.67
2018-05-01T09:25:49.174Z,10.58
2018-05-01T09:26:49.097Z,10.56
2018-05-01T09:27:49.022Z,10.55
2018-05-01T09:28:48.949Z,10.55
2018-05-01T09:29:48.870Z,10.58
2018-05-01T09:30:48.797Z,10.74
2018-05-01T09:31:48.721Z,10.77
2018-05-01T09:32:48.650Z,10.83
2018-05-01T09:33:48.568Z,10.55
2018-05-01T09:34:48.494Z,10.18
2018-05-01T09:35:48.417Z,10.13
2018-05-01T09:36:48.341Z,10.15
2018-05-01T09:37:48.266Z,10.21
2018-05-01T09:38:48.190Z,10.26
2018-05-01T09:39:48.114Z,10.34
2018-05-01T09:40:48.039Z,10.55
2018-05-01T09:41:48.009Z,10.53
2018-05-01T09:42:47.887Z,10.44
2018-05-01T09:43:47.811Z,10.40
2018-05-01T09:44:47.736Z,10.41
2018-05-01T09:45:47.659Z,10.39
2018-05-01T09:46:47.588Z,10.47
2018-05-01T09:47:47.508Z,10.60
2018-05-01T09:48:47.432Z,10.37
2018-05-01T09:49:47.357Z,10.51
2018-05-01T09:50:47.284Z,10.67
2018-05-01T09:51:47.206Z,10.78
2018-05-01T09:52:47.131Z,10.41
2018-05-01T09:53:47.055Z,10.34
2018-05-01T09:54:46.987Z,10.47
2018-05-01T09:55:46.903Z,10.56
2018-05-01T09:56:46.828Z,10.74
2018-05-01T09:57:46.752Z,10.84
2018-05-01T09:58:46.676Z,11.08
2018-05-01T09:59:46.601Z,11.21
2018-05-01T10:00:46.525Z,11.10
2018-05-01T10:01:46.458Z,10.92
2018-05-01T10:02:46.375Z,11.05
2018-05-01T10:03:46.299Z,10.98
2018-05-01T10:04:46.223Z,11.00
2018-05-01T10:05:46.148Z,10.98
2018-05-01T10:06:46.073Z,11.00
2018-05-01T10:07:46.000Z,10.99
2018-05-01T10:08:45.922Z,11.00
2018-05-01T10:09:45.846Z,10.95
2018-05-01T10:10:45.772Z,10.91
2018-05-01T10:11:45.696Z,11.05
2018-05-01T10:12:45.621Z,11.28
2018-05-01T10:13:45.546Z,11.57
2018-05-01T10:14:45.471Z,11.67
2018-05-01T10:15:45.396Z,11.89
2018-05-01T10:16:45.320Z,11.95
2018-05-01T10:17:45.245Z,12.00
2018-05-01T10:18:45.170Z,11.54
2018-05-01T10:19:45.097Z,11.20
2018-05-01T10:20:45.022Z,11.03
2018-05-01T10:21:44.948Z,11.23
2018-05-01T10:22:44.876Z,11.60
2018-05-01T10:23:44.797Z,11.57
2018-05-01T10:24:44.722Z,11.56
2018-05-01T10:25:44.646Z,11.65
2018-05-01T10:26:44.572Z,11.67
2018-05-01T10:27:44.497Z,11.69
2018-05-01T10:28:44.460Z,11.74
2018-05-01T10:29:44.348Z,11.81
2018-05-01T10:30:44.273Z,12.11
2018-05-01T10:31:44.199Z,12.31
2018-05-01T10:32:44.132Z,12.66
2018-05-01T10:33:44.047Z,12.74
2018-05-01T10:34:43.974Z,12.55
2018-05-01T10:35:43.905Z,12.09
2018-05-01T10:36:43.825Z,11.90
2018-05-01T10:37:43.750Z,11.95
2018-05-01T10:38:43.726Z,12.13
2018-05-01T10:39:43.601Z,12.09
2018-05-01T10:40:43.526Z,12.23
2018-05-01T10:41:43.452Z,11.98
2018-05-01T10:42:43.379Z,11.69
2018-05-01T10:43:43.304Z,11.53
2018-05-01T10:44:43.235Z,11.67
2018-05-01T10:45:43.177Z,11.71
2018-05-01T10:46:43.080Z,11.79
2018-05-01T10:47:43.006Z,11.95
2018-05-01T10:48:42.930Z,11.79
2018-05-01T10:49:42.856Z,11.71
2018-05-01T10:50:42.783Z,11.69
2018-05-01T10:51:42.706Z,11.64
2018-05-01T10:52:42.630Z,11.60
2018-05-01T10:53:42.557Z,11.56
2018-05-01T10:54:42.559Z,11.42
2018-05-01T10:55:42.410Z,11.64
2018-05-01T10:56:42.331Z,11.60
2018-05-01T10:57:42.258Z,11.95
2018-05-01T10:58:42.184Z,12.02
2018-05-01T10:59:42.109Z,12.12
2018-05-01T11:00:42.073Z,12.16
2018-05-01T11:01:41.960Z,12.21
2018-05-01T11:02:41.888Z,12.36
2018-05-01T11:03:41.813Z,12.60
2018-05-01T11:04:41.736Z,12.74
2018-05-01T11:05:41.662Z,12.81
2018-05-01T11:06:41.592Z,12.46
2018-05-01T11:07:41.515Z,12.31
2018-05-01T11:08:41.439Z,12.31
2018-05-01T11:09:41.368Z,12.19
2018-05-01T11:10:41.294Z,12.11
2018-05-01T11:11:41.220Z,12.33
2018-05-01T11:12:41.146Z,12.61
2018-05-01T11:13:41.071Z,12.78
2018-05-01T11:14:40.998Z,13.02
2018-05-01T11:15:40.927Z,12.84
2018-05-01T11:16:40.849Z,12.45
2018-05-01T11:17:40.776Z,12.59
2018-05-01T11:18:40.704Z,12.41
2018-05-01T11:19:40.633Z,12.51
2018-05-01T11:20:40.555Z,13.07
2018-05-01T11:21:40.487Z,13.66
2018-05-01T11:22:40.407Z,13.86
2018-05-01T11:23:40.334Z,13.96
2018-05-01T11:24:40.265Z,13.59
2018-05-01T11:25:40.188Z,13.50
2018-05-01T11:26:40.115Z,13.28
2018-05-01T11:27:40.043Z,13.10
2018-05-01T11:28:40.133Z,13.63
2018-05-01T11:29:39.896Z,14.38
2018-05-01T11:30:39.824Z,15.01
2018-05-01T11:31:39.751Z,15.88
2018-05-01T11:32:39.681Z,16.41
2018-05-01T11:33:39.641Z,17.14
2018-05-01T11:34:39.536Z,15.96
2018-05-01T11:35:39.466Z,16.04
2018-05-01T11:36:39.394Z,15.30
2018-05-01T11:37:39.326Z,14.84
2018-05-01T11:38:39.255Z,14.27
2018-05-01T11:39:39.184Z,13.99
2018-05-01T11:40:39.115Z,14.03
2018-05-01T11:41:39.045Z,14.74
2018-05-01T11:42:38.975Z,14.95
2018-05-01T11:43:38.907Z,15.08
2018-05-01T11:44:38.838Z,15.39
2018-05-01T11:45:38.767Z,16.66
2018-05-01T11:46:38.698Z,17.21
2018-05-01T11:47:38.630Z,17.20
2018-05-01T11:48:38.560Z,15.75
2018-05-01T11:49:38.493Z,16.34
2018-05-01T11:50:38.424Z,16.65
2018-05-01T11:51:38.356Z,17.74
2018-05-01T11:52:38.288Z,18.34
2018-05-01T11:53:38.254Z,18.79
2018-05-01T11:54:38.156Z,18.44
2018-05-01T11:55:38.090Z,18.19
2018-05-01T11:56:38.025Z,17.20
2018-05-01T11:57:37.958Z,16.08
2018-05-01T11:58:37.890Z,15.26
2018-05-01T11:59:37.826Z,15.42
2018-05-01T12:00:37.757Z,15.16
2018-05-01T12:01:37.694Z,16.08
2018-05-01T12:02:37.636Z,16.73
2018-05-01T12:03:37.564Z,17.26
2018-05-01T12:04:37.494Z,17.51
2018-05-01T12:05:37.428Z,17.33
2018-05-01T12:06:37.362Z,16.34
2018-05-01T12:07:37.297Z,16.93
2018-05-01T12:08:37.231Z,17.57
2018-05-01T12:09:37.165Z,18.00
2018-05-01T12:10:37.190Z,18.06
2018-05-01T12:11:37.035Z,18.76
2018-05-01T12:12:36.970Z,18.95
2018-05-01T12:13:36.905Z,19.55
2018-05-01T12:14:36.841Z,19.75
2018-05-01T12:15:36.783Z,19.73
2018-05-01T12:16:36.714Z,18.90
2018-05-01T12:17:36.650Z,17.67
2018-05-01T12:18:36.663Z,17.67
2018-05-01T12:19:36.525Z,18.21
2018-05-01T12:20:36.461Z,18.59
2018-05-01T12:21:36.397Z,17.96
2018-05-01T12:22:36.340Z,17.58
2018-05-01T12:23:36.282Z,17.81
2018-05-01T12:24:36.210Z,18.49
2018-05-01T12:25:36.150Z,17.82
2018-05-01T12:26:36.086Z,17.82
2018-05-01T12:27:36.028Z,18.32
2018-05-01T12:28:35.961Z,18.83
2018-05-01T12:29:35.899Z,19.63
2018-05-01T12:30:35.838Z,20.19
2018-05-01T12:31:35.775Z,20.53
2018-05-01T12:32:35.712Z,20.79
2018-05-01T12:33:35.651Z,21.06
2018-05-01T12:34:35.592Z,19.72
2018-05-01T12:35:35.529Z,20.09
2018-05-01T12:36:35.501Z,20.75
2018-05-01T12:37:35.407Z,20.57
2018-05-01T12:38:35.346Z,18.80
2018-05-01T12:39:35.284Z,19.09
2018-05-01T12:40:35.224Z,19.61
2018-05-01T12:41:35.164Z,19.11
2018-05-01T12:42:35.103Z,18.90
2018-05-01T12:43:35.042Z,19.48
2018-05-01T12:44:34.981Z,20.20
2018-05-01T12:45:34.920Z,19.69
2018-05-01T12:46:34.859Z,19.18
2018-05-01T12:47:34.799Z,19.28
2018-05-01T12:48:34.833Z,18.62
2018-05-01T12:49:34.677Z,17.02
2018-05-01T12:50:34.618Z,16.90
2018-05-01T12:51:34.555Z,17.51
2018-05-01T12:52:34.494Z,17.67
2018-05-01T12:53:34.432Z,17.87
2018-05-01T12:54:34.370Z,18.19
2018-05-01T12:55:34.315Z,17.76
2018-05-01T12:56:34.255Z,17.57
2018-05-01T12:57:34.185Z,17.89
2018-05-01T12:58:34.122Z,18.22
2018-05-01T12:59:34.062Z,18.80
2018-05-01T13:00:33.999Z,19.42
2018-05-01T13:01:33.937Z,20.26
2018-05-01T13:02:33.876Z,19.94
2018-05-01T13:03:33.815Z,19.65
2018-05-01T13:04:33.752Z,18.92
2018-05-01T13:05:33.692Z,18.83
2018-05-01T13:06:33.633Z,18.65
2018-05-01T13:07:33.569Z,18.79